createdAt,value
2019-02-21T00:00:55.938Z,99056.45
2019-02-21T00:03:27.936Z,99058.89
2019-02-21T00:05:59.932Z,99059.44
2019-02-21T00:08:31.924Z,99058.80
2019-02-21T00:11:03.922Z,99060.95
2019-02-21T00:13:35.964Z,99065.20
2019-02-21T00:16:07.938Z,99066.64
2019-02-21T00:18:39.937Z,99072.15
2019-02-21T00:21:11.935Z,99068.84
2019-02-21T00:23:43.944Z,99066.52
2019-02-21T00:26:15.931Z,99076.70
2019-02-21T00:28:47.935Z,99075.10
2019-02-21T00:31:19.965Z,99082.82
2019-02-21T00:33:51.936Z,99083.62
2019-02-21T00:36:23.928Z,99084.45
2019-02-21T00:38:55.884Z,99088.45
2019-02-21T00:41:27.906Z,99091.55
2019-02-21T00:43:59.887Z,99089.58
2019-02-21T00:46:31.908Z,99093.67
2019-02-21T00:49:03.890Z,99092.14
2019-02-21T00:51:35.890Z,99091.87
2019-02-21T00:54:07.897Z,99094.22
2019-02-21T00:56:39.899Z,99091.94
2019-02-21T00:59:11.891Z,99094.97
2019-02-21T01:01:43.872Z,99092.17
2019-02-21T01:04:15.841Z,99094.87
2019-02-21T01:06:47.847Z,99102.97
2019-02-21T01:09:19.808Z,99105.17
2019-02-21T01:11:51.917Z,99102.27
2019-02-21T01:14:23.888Z,99099.47
2019-02-21T01:16:55.917Z,99094.09
2019-02-21T01:19:27.853Z,99101.81
2019-02-21T01:21:59.869Z,99097.70
2019-02-21T01:24:31.815Z,99096.81
2019-02-21T01:27:03.847Z,99094.14
2019-02-21T01:29:35.831Z,99085.69
2019-02-21T01:32:07.802Z,99092.75
2019-02-21T01:34:39.759Z,99090.23
2019-02-21T01:37:11.758Z,99086.44
2019-02-21T01:39:43.720Z,99090.45
2019-02-21T01:42:15.726Z,99093.92
2019-02-21T01:44:47.864Z,99097.28
2019-02-21T01:47:19.898Z,99095.55
2019-02-21T01:49:51.853Z,99097.89
2019-02-21T01:52:23.846Z,99101.71
2019-02-21T01:54:55.815Z,99096.52
2019-02-21T01:57:28.629Z,99096.05
2019-02-21T02:00:00.789Z,99096.00
2019-02-21T02:02:32.758Z,99099.38
2019-02-21T02:05:05.421Z,99104.50
2019-02-21T02:07:37.891Z,99107.25
2019-02-21T02:10:09.979Z,99111.22
2019-02-21T02:12:41.979Z,99105.10
2019-02-21T02:15:14.001Z,99103.80
2019-02-21T02:17:46.020Z,99110.14
2019-02-21T02:20:18.048Z,99112.55
2019-02-21T02:22:50.046Z,99110.59
2019-02-21T02:25:22.038Z,99106.47
2019-02-21T02:27:54.011Z,99107.80
2019-02-21T02:30:25.999Z,99104.42
2019-02-21T02:32:57.997Z,99103.93
2019-02-21T02:35:29.986Z,99102.48
2019-02-21T02:38:01.970Z,99106.91
2019-02-21T02:40:33.961Z,99103.87
2019-02-21T02:43:05.911Z,99109.09
2019-02-21T02:45:37.905Z,99108.39
2019-02-21T02:48:09.868Z,99109.65
2019-02-21T02:50:41.966Z,99108.87
2019-02-21T02:53:13.923Z,99104.02
2019-02-21T02:55:45.902Z,99104.17
2019-02-21T02:58:17.870Z,99111.66
2019-02-21T03:04:30.043Z,99116.44
2019-02-21T03:07:02.019Z,99116.55
2019-02-21T03:09:34.006Z,99115.84
2019-02-21T03:12:05.974Z,99113.11
2019-02-21T03:14:37.934Z,99111.55
2019-02-21T03:17:09.901Z,99111.73
2019-02-21T03:19:41.839Z,99118.44
2019-02-21T03:22:13.822Z,99113.17
2019-02-21T03:24:45.753Z,99115.84
2019-02-21T03:27:17.778Z,99118.70
2019-02-21T03:29:49.759Z,99116.52
2019-02-21T03:32:21.743Z,99121.94
2019-02-21T03:34:53.686Z,99124.94
2019-02-21T03:37:25.670Z,99124.60
2019-02-21T03:39:57.644Z,99124.78
2019-02-21T03:42:29.627Z,99127.31
2019-02-21T03:45:01.571Z,99133.28
2019-02-21T03:47:33.557Z,99140.13
2019-02-21T03:50:05.621Z,99143.21
2019-02-21T03:52:37.594Z,99142.88
2019-02-21T03:55:09.527Z,99142.47
2019-02-21T03:57:41.511Z,99141.58
2019-02-21T04:03:32.767Z,99145.78
2019-02-21T04:06:04.716Z,99151.72
2019-02-21T04:08:36.693Z,99149.34
2019-02-21T04:11:08.649Z,99152.86
2019-02-21T04:13:40.667Z,99143.00
2019-02-21T04:16:12.642Z,99149.12
2019-02-21T04:18:44.620Z,99139.22
2019-02-21T04:21:16.592Z,99137.95
2019-02-21T04:23:48.568Z,99132.95
2019-02-21T04:26:20.507Z,99131.24
2019-02-21T04:28:52.487Z,99139.06
2019-02-21T04:31:24.442Z,99134.76
2019-02-21T04:33:56.416Z,99132.35
2019-02-21T04:36:28.388Z,99139.92
2019-02-21T04:39:00.386Z,99136.72
2019-02-21T04:41:32.344Z,99140.84
2019-02-21T04:44:04.354Z,99138.94
2019-02-21T04:46:36.294Z,99133.16
2019-02-21T04:49:08.370Z,99135.53
2019-02-21T04:51:40.333Z,99132.27
2019-02-21T04:54:12.329Z,99136.05
2019-02-21T04:56:44.289Z,99136.23
2019-02-21T04:59:16.250Z,99140.54
2019-02-21T05:01:48.206Z,99145.58
2019-02-21T05:04:20.191Z,99147.55
2019-02-21T05:06:52.280Z,99146.38
2019-02-21T05:09:26.916Z,99148.59
2019-02-21T05:11:58.170Z,99151.81
2019-02-21T05:14:30.178Z,99155.97
2019-02-21T05:17:02.175Z,99156.38
2019-02-21T05:19:34.193Z,99154.59
2019-02-21T05:22:06.185Z,99157.81
2019-02-21T05:24:38.221Z,99157.45
2019-02-21T05:27:22.765Z,99159.05
2019-02-21T05:29:54.926Z,99159.72
2019-02-21T05:32:55.319Z,99155.50
2019-02-21T05:35:36.956Z,99142.66
2019-02-21T05:38:28.492Z,99145.56
2019-02-21T05:41:18.988Z,99154.94
2019-02-21T05:44:10.552Z,99153.23
2019-02-21T05:46:55.837Z,99143.14
2019-02-21T05:49:38.086Z,99148.75
2019-02-21T05:52:20.792Z,99159.31
2019-02-21T05:54:59.571Z,99159.28
2019-02-21T05:57:40.169Z,99153.69
2019-02-21T06:00:29.323Z,99156.92
2019-02-21T06:03:19.457Z,99146.50
2019-02-21T06:06:09.958Z,99141.07
2019-02-21T06:08:58.108Z,99141.97
2019-02-21T06:11:55.516Z,99137.14
2019-02-21T06:14:44.054Z,99137.89
2019-02-21T06:17:50.723Z,99143.46
2019-02-21T06:20:45.054Z,99142.38
2019-02-21T06:23:39.540Z,99136.59
2019-02-21T06:26:18.926Z,99139.25
2019-02-21T06:29:13.482Z,99142.90
2019-02-21T06:31:45.436Z,99147.48
2019-02-21T06:34:17.396Z,99149.81
2019-02-21T06:36:49.359Z,99157.70
2019-02-21T06:39:21.365Z,99157.16
2019-02-21T06:41:59.564Z,99155.74
2019-02-21T06:44:27.221Z,99165.84
2019-02-21T06:46:59.198Z,99170.66
2019-02-21T06:49:32.788Z,99176.97
2019-02-21T06:52:05.123Z,99178.33
2019-02-21T06:54:37.117Z,99180.30
2019-02-21T06:57:09.136Z,99199.03
2019-02-21T06:59:44.509Z,99195.72
2019-02-21T07:02:15.037Z,99199.65
2019-02-21T07:04:47.019Z,99194.28
2019-02-21T07:07:19.017Z,99198.72
2019-02-21T07:09:51.021Z,99192.97
2019-02-21T07:12:23.028Z,99193.98
2019-02-21T07:14:55.068Z,99198.11
2019-02-21T07:17:27.575Z,99201.33
2019-02-21T07:20:01.510Z,99210.59
2019-02-21T07:22:33.451Z,99209.97
2019-02-21T07:25:25.064Z,99218.70
2019-02-21T07:27:58.348Z,99219.62
2019-02-21T07:30:30.543Z,99216.96
2019-02-21T07:33:03.843Z,99219.42
2019-02-21T07:35:35.869Z,99217.86
2019-02-21T07:38:07.825Z,99222.09
2019-02-21T07:40:39.857Z,99220.04
2019-02-21T07:43:12.899Z,99228.46
2019-02-21T07:45:45.066Z,99217.44
2019-02-21T07:48:17.140Z,99228.48
2019-02-21T07:50:49.128Z,99219.06
2019-02-21T07:53:21.088Z,99223.61
2019-02-21T07:55:55.690Z,99228.32
2019-02-21T07:58:26.955Z,99222.87
2019-02-21T08:00:58.975Z,99223.19
2019-02-21T08:03:43.473Z,99220.80
2019-02-21T08:06:04.878Z,99222.97
2019-02-21T08:08:36.882Z,99209.28
2019-02-21T08:11:08.890Z,99219.23
2019-02-21T08:13:40.870Z,99218.37
2019-02-21T08:16:12.925Z,99220.53
2019-02-21T08:18:44.933Z,99220.19
2019-02-21T08:21:16.971Z,99205.61
2019-02-21T08:23:50.882Z,99212.91
2019-02-21T08:26:22.832Z,99211.00
2019-02-21T08:28:54.793Z,99206.59
2019-02-21T08:31:26.785Z,99202.25
2019-02-21T08:34:05.245Z,99213.52
2019-02-21T08:36:37.235Z,99203.52
2019-02-21T08:39:09.587Z,99204.16
2019-02-21T08:41:41.587Z,99197.73
2019-02-21T08:44:13.548Z,99200.66
2019-02-21T08:46:45.551Z,99199.73
2019-02-21T08:49:17.541Z,99209.09
2019-02-21T08:51:49.534Z,99204.66
2019-02-21T08:54:21.528Z,99202.55
2019-02-21T08:56:54.028Z,99208.41
2019-02-21T08:59:26.029Z,99207.33
2019-02-21T09:01:58.066Z,99209.01
2019-02-21T09:04:30.079Z,99207.52
2019-02-21T09:07:02.113Z,99215.16
2019-02-21T09:09:34.148Z,99210.30
2019-02-21T09:12:06.134Z,99213.63
2019-02-21T09:14:38.122Z,99207.75
2019-02-21T09:17:10.121Z,99197.26
2019-02-21T09:19:42.099Z,99194.66
2019-02-21T09:22:14.094Z,99200.65
2019-02-21T09:24:46.083Z,99192.28
2019-02-21T09:27:18.073Z,99192.53
2019-02-21T09:29:50.087Z,99197.87
2019-02-21T09:32:22.081Z,99195.22
2019-02-21T09:34:54.067Z,99197.72
2019-02-21T09:37:26.028Z,99204.97
2019-02-21T09:39:58.019Z,99209.05
2019-02-21T09:42:29.999Z,99202.84
2019-02-21T09:45:01.995Z,99199.28
2019-02-21T09:47:33.949Z,99203.95
2019-02-21T09:50:06.528Z,99199.64
2019-02-21T09:52:38.513Z,99199.64
2019-02-21T09:55:11.391Z,99203.66
2019-02-21T09:57:43.366Z,99203.16
2019-02-21T10:00:17.139Z,99192.25
2019-02-21T10:02:49.116Z,99197.69
2019-02-21T10:05:21.109Z,99193.86
2019-02-21T10:07:53.050Z,99192.58
2019-02-21T10:10:25.084Z,99190.89
2019-02-21T10:12:57.078Z,99184.61
2019-02-21T10:15:31.423Z,99192.39
2019-02-21T10:18:02.971Z,99191.86
2019-02-21T10:20:35.018Z,99187.17
2019-02-21T10:23:06.999Z,99179.25
2019-02-21T10:25:39.021Z,99188.19
2019-02-21T10:28:10.972Z,99195.03
2019-02-21T10:30:43.003Z,99197.69
2019-02-21T10:33:14.959Z,99200.09
2019-02-21T10:35:46.952Z,99195.60
2019-02-21T10:38:18.969Z,99187.89
2019-02-21T10:40:50.972Z,99190.70
2019-02-21T10:43:22.985Z,99187.52
2019-02-21T10:45:54.997Z,99178.04
2019-02-21T10:48:26.981Z,99175.27
2019-02-21T10:50:58.980Z,99173.12
2019-02-21T10:53:30.964Z,99170.44
2019-02-21T10:56:02.962Z,99161.93
2019-02-21T10:58:34.968Z,99161.02
2019-02-21T11:01:06.981Z,99165.19
2019-02-21T11:03:38.965Z,99151.23
2019-02-21T11:06:10.957Z,99148.45
2019-02-21T11:08:42.984Z,99149.73
2019-02-21T11:11:17.098Z,99149.93
2019-02-21T11:13:48.927Z,99148.27
2019-02-21T11:16:20.951Z,99139.56
2019-02-21T11:18:52.940Z,99142.41
2019-02-21T11:21:24.991Z,99139.44
2019-02-21T11:23:56.960Z,99150.22
2019-02-21T11:26:28.975Z,99142.80
2019-02-21T11:29:02.078Z,99133.80
2019-02-21T11:31:34.073Z,99125.05
2019-02-21T11:34:06.111Z,99128.62
2019-02-21T11:36:38.124Z,99125.34
2019-02-21T11:39:10.246Z,99125.49
2019-02-21T11:41:43.854Z,99120.34
2019-02-21T11:44:16.022Z,99128.80
2019-02-21T11:46:48.021Z,99130.34
2019-02-21T11:49:20.006Z,99129.61
2019-02-21T11:51:52.017Z,99130.11
2019-02-21T11:54:26.716Z,99131.58
2019-02-21T11:56:57.975Z,99122.86
2019-02-21T11:59:30.048Z,99121.85
2019-02-21T12:02:02.033Z,99120.74
2019-02-21T12:04:35.939Z,99119.93
2019-02-21T12:07:07.930Z,99114.72
2019-02-21T12:09:39.974Z,99109.80
2019-02-21T12:12:11.963Z,99113.69
2019-02-21T12:14:44.006Z,99111.82
2019-02-21T12:17:16.005Z,99115.77
2019-02-21T12:19:47.977Z,99112.44
2019-02-21T12:22:21.109Z,99115.41
2019-02-21T12:24:53.210Z,99115.27
2019-02-21T12:27:26.304Z,99108.86
2019-02-21T12:29:58.314Z,99102.92
2019-02-21T12:32:30.315Z,99099.36
2019-02-21T12:35:02.356Z,99100.75
2019-02-21T12:37:34.466Z,99101.13
2019-02-21T12:40:08.368Z,99091.31
2019-02-21T12:42:40.444Z,99086.36
2019-02-21T12:45:14.367Z,99090.36
2019-02-21T12:47:50.845Z,99097.55
2019-02-21T12:50:20.279Z,99098.69
2019-02-21T12:52:52.272Z,99091.88
2019-02-21T12:55:29.486Z,99090.23
2019-02-21T12:57:58.238Z,99090.03
2019-02-21T13:00:30.259Z,99095.31
2019-02-21T13:03:02.376Z,99075.41
2019-02-21T13:05:40.955Z,99078.97
2019-02-21T13:08:08.654Z,99072.34
2019-02-21T13:10:40.688Z,99072.08
2019-02-21T13:13:12.665Z,99078.86
2019-02-21T13:15:44.683Z,99073.16
2019-02-21T13:18:16.674Z,99066.92
2019-02-21T13:20:48.690Z,99068.01
2019-02-21T13:23:22.494Z,99058.98
2019-02-21T13:25:54.534Z,99066.68
2019-02-21T13:28:26.516Z,99058.95
2019-02-21T13:30:58.512Z,99060.02
2019-02-21T13:33:30.497Z,99058.86
2019-02-21T13:36:02.648Z,99053.34
2019-02-21T13:38:34.650Z,99056.20
2019-02-21T13:41:06.688Z,99052.50
2019-02-21T13:43:38.676Z,99056.98
2019-02-21T13:46:10.679Z,99055.69
2019-02-21T13:48:42.681Z,99053.53
2019-02-21T13:51:14.653Z,99057.79
2019-02-21T13:53:46.888Z,99055.39
2019-02-21T13:56:18.902Z,99053.28
2019-02-21T13:58:50.942Z,99050.95
2019-02-21T14:01:22.903Z,99052.45
2019-02-21T14:03:56.718Z,99047.86
2019-02-21T14:06:28.862Z,99049.45
2019-02-21T14:09:00.865Z,99045.12
2019-02-21T14:11:32.961Z,99046.41
2019-02-21T14:14:05.052Z,99046.64
2019-02-21T14:16:46.086Z,99043.21
2019-02-21T14:19:11.133Z,99047.72
2019-02-21T14:21:43.848Z,99055.52
2019-02-21T14:24:16.003Z,99052.07
2019-02-21T14:26:48.300Z,99052.38
2019-02-21T14:29:20.417Z,99051.44
2019-02-21T14:31:52.447Z,99051.90
2019-02-21T14:34:24.493Z,99056.64
2019-02-21T14:36:56.470Z,99064.94
2019-02-21T14:39:28.637Z,99070.09
2019-02-21T14:42:00.666Z,99067.86
2019-02-21T14:44:32.846Z,99067.69
2019-02-21T14:47:08.062Z,99063.41
2019-02-21T14:49:40.137Z,99069.09
2019-02-21T14:52:12.150Z,99070.89
2019-02-21T14:54:44.154Z,99068.91
2019-02-21T14:57:16.421Z,99072.95
2019-02-21T14:59:50.299Z,99078.06
2019-02-21T15:02:22.409Z,99079.28
2019-02-21T15:04:54.396Z,99076.52
2019-02-21T15:07:26.539Z,99079.09
2019-02-21T15:09:58.600Z,99073.51
2019-02-21T15:12:30.622Z,99076.30
2019-02-21T15:15:03.146Z,99077.08
2019-02-21T15:17:37.177Z,99074.42
2019-02-21T15:20:10.451Z,99077.99
2019-02-21T15:22:42.586Z,99080.34
2019-02-21T15:25:14.584Z,99082.44
2019-02-21T15:27:46.804Z,99077.30
2019-02-21T15:30:20.826Z,99079.09
2019-02-21T15:32:52.919Z,99078.98
2019-02-21T15:35:25.045Z,99080.56
2019-02-21T15:37:57.182Z,99092.95
2019-02-21T15:40:29.241Z,99089.48
2019-02-21T15:43:01.521Z,99092.56
2019-02-21T15:45:33.532Z,99091.10
2019-02-21T15:48:07.390Z,99103.59
2019-02-21T15:50:39.987Z,99095.98
2019-02-21T15:53:12.062Z,99100.54
2019-02-21T15:55:44.085Z,99101.31
2019-02-21T15:58:16.099Z,99098.36
2019-02-21T16:00:48.123Z,99105.68
2019-02-21T16:03:20.174Z,99102.13
2019-02-21T16:05:52.355Z,99091.05
2019-02-21T16:08:26.197Z,99097.09
2019-02-21T16:10:58.227Z,99099.86
2019-02-21T16:13:30.734Z,99089.27
2019-02-21T16:16:02.915Z,99093.41
2019-02-21T16:18:35.229Z,99085.79
2019-02-21T16:21:07.296Z,99088.08
2019-02-21T16:23:39.321Z,99089.73
2019-02-21T16:26:11.354Z,99101.29
2019-02-21T16:28:43.395Z,99104.73
2019-02-21T16:31:16.520Z,99097.36
2019-02-21T16:33:48.547Z,99098.77
2019-02-21T16:36:22.358Z,99104.86
2019-02-21T16:38:54.481Z,99103.84
2019-02-21T16:41:36.068Z,99109.64
2019-02-21T16:44:00.662Z,99108.23
2019-02-21T16:46:32.819Z,99116.59
2019-02-21T16:49:04.955Z,99124.33
2019-02-21T16:51:37.129Z,99118.45
2019-02-21T16:54:10.368Z,99126.33
2019-02-21T16:56:42.379Z,99124.40
2019-02-21T16:59:14.569Z,99136.75
2019-02-21T17:01:46.646Z,99137.74
2019-02-21T17:04:20.547Z,99132.81
2019-02-21T17:06:52.625Z,99136.22
2019-02-21T17:09:24.652Z,99138.95
2019-02-21T17:11:56.802Z,99143.72
2019-02-21T17:14:28.860Z,99141.30
2019-02-21T17:17:00.893Z,99148.80
2019-02-21T17:19:32.992Z,99145.81
2019-02-21T17:22:05.021Z,99156.73
2019-02-21T17:24:37.032Z,99157.94
2019-02-21T17:27:09.163Z,99161.84
2019-02-21T17:29:41.163Z,99166.25
2019-02-21T17:32:13.194Z,99170.63
2019-02-21T17:37:58.442Z,99174.67
2019-02-21T17:40:30.516Z,99183.40
2019-02-21T17:43:02.554Z,99187.91
2019-02-21T17:45:34.566Z,99192.53
2019-02-21T17:48:06.691Z,99191.27
2019-02-21T17:50:38.783Z,99195.62
2019-02-21T17:53:10.854Z,99202.55
2019-02-21T17:55:42.926Z,99195.69
2019-02-21T17:58:17.168Z,99202.61
2019-02-21T18:00:48.939Z,99205.91
2019-02-21T18:03:21.028Z,99213.47
2019-02-21T18:05:55.902Z,99203.15
2019-02-21T18:08:27.064Z,99215.77
2019-02-21T18:10:59.141Z,99222.55
2019-02-21T18:13:31.249Z,99226.65
2019-02-21T18:16:03.322Z,99225.13
2019-02-21T18:18:35.398Z,99228.45
2019-02-21T18:21:08.337Z,99231.50
2019-02-21T18:23:41.523Z,99229.19
2019-02-21T18:26:16.492Z,99225.61
2019-02-21T18:28:48.611Z,99227.17
2019-02-21T18:31:20.687Z,99228.16
2019-02-21T18:33:52.787Z,99223.34
2019-02-21T18:36:24.853Z,99228.19
2019-02-21T18:38:56.997Z,99236.23
2019-02-21T18:41:29.164Z,99238.14
2019-02-21T18:44:01.292Z,99239.67
2019-02-21T18:46:33.425Z,99240.17
2019-02-21T18:49:05.580Z,99248.61
2019-02-21T18:51:37.675Z,99240.81
2019-02-21T18:54:09.769Z,99243.62
2019-02-21T18:56:41.937Z,99247.05
2019-02-21T18:59:14.177Z,99238.37
2019-02-21T19:01:46.300Z,99242.97
2019-02-21T19:04:18.428Z,99241.45
2019-02-21T19:06:50.581Z,99244.88
2019-02-21T19:09:22.721Z,99251.16
2019-02-21T19:11:54.861Z,99252.17
2019-02-21T19:14:27.107Z,99250.64
2019-02-21T19:16:59.211Z,99248.33
2019-02-21T19:19:31.343Z,99242.73
2019-02-21T19:22:03.444Z,99241.81
2019-02-21T19:24:37.055Z,99247.55
2019-02-21T19:27:09.472Z,99247.84
2019-02-21T19:29:41.688Z,99250.62
2019-02-21T19:32:13.819Z,99248.84
2019-02-21T19:34:45.883Z,99241.19
2019-02-21T19:37:17.974Z,99237.60
2019-02-21T19:39:51.223Z,99236.83
2019-02-21T19:42:23.391Z,99236.57
2019-02-21T19:44:55.415Z,99238.64
2019-02-21T19:47:27.561Z,99243.98
2019-02-21T19:49:59.766Z,99242.22
2019-02-21T19:52:31.772Z,99250.23
2019-02-21T19:55:05.171Z,99249.09
2019-02-21T19:57:37.439Z,99253.70
2019-02-21T20:00:13.710Z,99249.08
2019-02-21T20:02:45.850Z,99252.66
2019-02-21T20:05:17.888Z,99260.94
2019-02-21T20:07:50.168Z,99251.25
2019-02-21T20:10:22.508Z,99253.39
2019-02-21T20:12:56.620Z,99255.19
2019-02-21T20:15:28.706Z,99253.12
2019-02-21T20:18:01.906Z,99248.27
2019-02-21T20:20:33.931Z,99249.78
2019-02-21T20:23:06.124Z,99243.66
2019-02-21T20:25:39.426Z,99251.28
2019-02-21T20:28:11.629Z,99249.00
2019-02-21T20:30:43.746Z,99259.03
2019-02-21T20:33:15.979Z,99257.41
2019-02-21T20:35:49.269Z,99249.61
2019-02-21T20:38:31.548Z,99245.55
2019-02-21T20:40:56.942Z,99259.17
2019-02-21T20:43:29.290Z,99256.60
2019-02-21T20:46:01.656Z,99264.02
2019-02-21T20:48:33.754Z,99258.14
2019-02-21T20:51:05.834Z,99260.84
2019-02-21T20:53:38.035Z,99260.95
2019-02-21T20:56:10.151Z,99269.64
2019-02-21T20:58:42.274Z,99270.27
2019-02-21T21:01:15.099Z,99274.70
2019-02-21T21:03:47.186Z,99272.28
2019-02-21T21:06:19.383Z,99273.56
2019-02-21T21:08:51.661Z,99286.06
2019-02-21T21:11:23.709Z,99282.63
2019-02-21T21:13:55.774Z,99286.72
2019-02-21T21:16:27.812Z,99285.70
2019-02-21T21:18:59.911Z,99287.48
2019-02-21T21:21:32.053Z,99292.70
2019-02-21T21:24:04.218Z,99282.36
2019-02-21T21:26:36.371Z,99288.73
2019-02-21T21:29:08.380Z,99285.80
2019-02-21T21:31:40.440Z,99285.03
2019-02-21T21:34:12.477Z,99289.73
2019-02-21T21:36:44.643Z,99286.16
2019-02-21T21:39:16.909Z,99291.25
2019-02-21T21:41:49.109Z,99294.57
2019-02-21T21:44:21.267Z,99302.60
2019-02-21T21:46:53.354Z,99300.83
2019-02-21T21:49:25.426Z,99302.22
2019-02-21T21:51:57.510Z,99307.55
2019-02-21T21:54:29.618Z,99306.93
2019-02-21T21:57:01.884Z,99314.11
2019-02-21T21:59:33.904Z,99307.61
2019-02-21T22:02:05.951Z,99315.52
2019-02-21T22:04:37.962Z,99315.50
2019-02-21T22:07:11.083Z,99323.11
2019-02-21T22:09:43.159Z,99326.55
2019-02-21T22:12:15.216Z,99323.77
2019-02-21T22:14:47.238Z,99325.39
2019-02-21T22:17:21.134Z,99321.06
2019-02-21T22:19:53.190Z,99323.11
2019-02-21T22:22:25.237Z,99325.81
2019-02-21T22:24:58.412Z,99320.98
2019-02-21T22:27:30.508Z,99322.64
2019-02-21T22:30:23.961Z,99329.13
2019-02-21T22:32:56.391Z,99325.69
2019-02-21T22:35:28.509Z,99321.37
2019-02-21T22:38:00.672Z,99324.69
2019-02-21T22:40:32.635Z,99320.09
2019-02-21T22:43:04.654Z,99322.76
2019-02-21T22:45:36.742Z,99324.16
2019-02-21T22:48:08.744Z,99330.52
2019-02-21T22:50:40.744Z,99335.50
2019-02-21T22:53:12.750Z,99336.36
2019-02-21T22:55:44.745Z,99340.42
2019-02-21T22:58:16.755Z,99342.70
2019-02-21T23:00:58.769Z,99348.95
2019-02-21T23:03:42.623Z,99352.89
2019-02-21T23:06:39.274Z,99348.84
2019-02-21T23:09:27.466Z,99353.16
2019-02-21T23:11:55.823Z,99360.73
2019-02-21T23:14:28.137Z,99366.17
2019-02-21T23:17:00.102Z,99365.41
2019-02-21T23:19:32.105Z,99362.35
2019-02-21T23:22:04.084Z,99363.36
2019-02-21T23:24:36.083Z,99361.73
2019-02-21T23:27:08.037Z,99360.07
2019-02-21T23:29:40.044Z,99358.41
2019-02-21T23:32:12.013Z,99359.19
2019-02-21T23:34:44.630Z,99358.26
2019-02-21T23:37:16.597Z,99353.16
2019-02-21T23:39:48.570Z,99349.61
2019-02-21T23:42:22.671Z,99350.88
2019-02-21T23:44:54.617Z,99350.61
2019-02-21T23:47:26.617Z,99350.88
2019-02-21T23:49:58.614Z,99348.69
2019-02-21T23:52:30.596Z,99354.70
2019-02-21T23:55:02.733Z,99346.02
2019-02-21T23:57:34.691Z,99346.02
